sensor_id;sensor_type;location;lat;lon;timestamp;temperature;humidity
1361;DHT22;674;45.552;-122.600;2023-02-15T00:00:21;7.60;1.00
1361;DHT22;674;45.552;-122.600;2023-02-15T00:02:50;7.60;1.00
1361;DHT22;674;45.552;-122.600;2023-02-15T00:05:18;7.70;1.00
1361;DHT22;674;45.552;-122.600;2023-02-15T00:07:47;7.70;1.00
1361;DHT22;674;45.552;-122.600;2023-02-15T00:10:15;7.70;1.00
1361;DHT22;674;45.552;-122.600;2023-02-15T00:12:45;7.70;1.00
1361;DHT22;674;45.552;-122.600;2023-02-15T00:15:13;7.80;1.00
1361;DHT22;674;45.552;-122.600;2023-02-15T00:17:41;7.60;1.00
1361;DHT22;674;45.552;-122.600;2023-02-15T00:20:10;7.60;1.00
1361;DHT22;674;45.552;-122.600;2023-02-15T00:22:38;7.70;1.00
1361;DHT22;674;45.552;-122.600;2023-02-15T00:25:07;7.20;1.00
1361;DHT22;674;45.552;-122.600;2023-02-15T00:27:35;6.70;1.00
1361;DHT22;674;45.552;-122.600;2023-02-15T00:30:04;6.60;1.00
1361;DHT22;674;45.552;-122.600;2023-02-15T00:32:33;6.80;1.00
1361;DHT22;674;45.552;-122.600;2023-02-15T00:35:02;6.90;1.00
1361;DHT22;674;45.552;-122.600;2023-02-15T00:37:30;7.00;1.00
1361;DHT22;674;45.552;-122.600;2023-02-15T00:39:58;7.20;1.00
1361;DHT22;674;45.552;-122.600;2023-02-15T00:42:27;7.20;1.00
1361;DHT22;674;45.552;-122.600;2023-02-15T00:44:55;7.30;1.00
1361;DHT22;674;45.552;-122.600;2023-02-15T00:47:24;6.90;1.00
1361;DHT22;674;45.552;-122.600;2023-02-15T00:49:53;6.90;1.00
1361;DHT22;674;45.552;-122.600;2023-02-15T00:52:21;6.70;1.00
1361;DHT22;674;45.552;-122.600;2023-02-15T00:54:49;6.50;1.00
1361;DHT22;674;45.552;-122.600;2023-02-15T00:57:18;6.50;1.00
1361;DHT22;674;45.552;-122.600;2023-02-15T00:59:46;6.20;1.00
1361;DHT22;674;45.552;-122.600;2023-02-15T01:02:15;6.00;1.00
1361;DHT22;674;45.552;-122.600;2023-02-15T01:04:43;6.10;1.00
1361;DHT22;674;45.552;-122.600;2023-02-15T01:07:12;6.20;1.00
1361;DHT22;674;45.552;-122.600;2023-02-15T01:09:40;6.10;1.00
1361;DHT22;674;45.552;-122.600;2023-02-15T01:12:08;6.10;1.00
1361;DHT22;674;45.552;-122.600;2023-02-15T01:14:37;6.20;1.00
1361;DHT22;674;45.552;-122.600;2023-02-15T01:17:05;6.00;1.00
1361;DHT22;674;45.552;-122.600;2023-02-15T01:19:34;5.90;1.00
1361;DHT22;674;45.552;-122.600;2023-02-15T01:22:02;5.90;1.00
1361;DHT22;674;45.552;-122.600;2023-02-15T01:24:31;6.20;1.00
1361;DHT22;674;45.552;-122.600;2023-02-15T01:26:59;6.00;1.00
1361;DHT22;674;45.552;-122.600;2023-02-15T01:29:28;6.00;1.00
1361;DHT22;674;45.552;-122.600;2023-02-15T01:31:56;6.10;1.00
1361;DHT22;674;45.552;-122.600;2023-02-15T01:34:25;6.20;1.00
1361;DHT22;674;45.552;-122.600;2023-02-15T01:36:53;5.90;1.00
1361;DHT22;674;45.552;-122.600;2023-02-15T01:39:21;5.80;1.00
1361;DHT22;674;45.552;-122.600;2023-02-15T01:41:50;5.50;1.00
1361;DHT22;674;45.552;-122.600;2023-02-15T01:44:56;5.60;1.00
1361;DHT22;674;45.552;-122.600;2023-02-15T01:47:34;5.80;1.00
1361;DHT22;674;45.552;-122.600;2023-02-15T01:52:52;5.80;1.00
1361;DHT22;674;45.552;-122.600;2023-02-15T01:55:25;5.90;1.00
1361;DHT22;674;45.552;-122.600;2023-02-15T01:57:55;5.80;1.00
1361;DHT22;674;45.552;-122.600;2023-02-15T02:00:23;5.70;1.00
1361;DHT22;674;45.552;-122.600;2023-02-15T02:02:54;5.80;1.00
1361;DHT22;674;45.552;-122.600;2023-02-15T02:05:24;5.90;1.00
1361;DHT22;674;45.552;-122.600;2023-02-15T02:07:54;5.90;1.00
1361;DHT22;674;45.552;-122.600;2023-02-15T02:10:25;5.90;1.00
1361;DHT22;674;45.552;-122.600;2023-02-15T02:12:57;5.80;1.00
1361;DHT22;674;45.552;-122.600;2023-02-15T02:18:32;5.60;1.00
1361;DHT22;674;45.552;-122.600;2023-02-15T02:33:01;5.90;1.00
1361;DHT22;674;45.552;-122.600;2023-02-15T02:38:23;5.30;1.00
1361;DHT22;674;45.552;-122.600;2023-02-15T02:41:07;5.50;1.00
1361;DHT22;674;45.552;-122.600;2023-02-15T02:43:56;5.90;1.00
1361;DHT22;674;45.552;-122.600;2023-02-15T02:47:16;5.50;1.00
1361;DHT22;674;45.552;-122.600;2023-02-15T02:49:33;5.50;1.00
1361;DHT22;674;45.552;-122.600;2023-02-15T02:54:49;5.40;1.00
1361;DHT22;674;45.552;-122.600;2023-02-15T02:57:19;5.50;1.00
1361;DHT22;674;45.552;-122.600;2023-02-15T02:59:48;5.90;1.00
1361;DHT22;674;45.552;-122.600;2023-02-15T03:02:26;5.40;1.00
1361;DHT22;674;45.552;-122.600;2023-02-15T03:05:02;5.50;1.00
1361;DHT22;674;45.552;-122.600;2023-02-15T03:07:31;5.50;1.00
1361;DHT22;674;45.552;-122.600;2023-02-15T03:10:04;5.40;1.00
1361;DHT22;674;45.552;-122.600;2023-02-15T03:12:35;5.70;1.00
1361;DHT22;674;45.552;-122.600;2023-02-15T03:15:17;5.70;1.00
1361;DHT22;674;45.552;-122.600;2023-02-15T03:17:51;5.90;1.00
1361;DHT22;674;45.552;-122.600;2023-02-15T03:20:32;5.90;1.00
1361;DHT22;674;45.552;-122.600;2023-02-15T03:23:06;5.70;1.00
1361;DHT22;674;45.552;-122.600;2023-02-15T03:25:40;5.60;1.00
1361;DHT22;674;45.552;-122.600;2023-02-15T03:28:13;5.70;1.00
1361;DHT22;674;45.552;-122.600;2023-02-15T03:30:47;5.80;1.00
1361;DHT22;674;45.552;-122.600;2023-02-15T03:33:17;5.70;1.00
1361;DHT22;674;45.552;-122.600;2023-02-15T03:36:04;5.60;1.00
1361;DHT22;674;45.552;-122.600;2023-02-15T03:41:32;5.90;1.00
1361;DHT22;674;45.552;-122.600;2023-02-15T03:44:11;5.90;1.00
1361;DHT22;674;45.552;-122.600;2023-02-15T03:46:54;5.90;1.00
1361;DHT22;674;45.552;-122.600;2023-02-15T03:49:26;5.60;1.00
1361;DHT22;674;45.552;-122.600;2023-02-15T03:51:57;5.60;1.00
1361;DHT22;674;45.552;-122.600;2023-02-15T03:54:29;5.60;1.00
1361;DHT22;674;45.552;-122.600;2023-02-15T04:00:25;5.40;1.00
1361;DHT22;674;45.552;-122.600;2023-02-15T04:06:27;5.60;1.00
1361;DHT22;674;45.552;-122.600;2023-02-15T04:08:55;5.60;1.00
1361;DHT22;674;45.552;-122.600;2023-02-15T04:11:42;5.10;1.00
1361;DHT22;674;45.552;-122.600;2023-02-15T04:14:10;4.70;1.00
1361;DHT22;674;45.552;-122.600;2023-02-15T04:16:57;4.40;1.00
1361;DHT22;674;45.552;-122.600;2023-02-15T04:19:26;4.70;1.00
1361;DHT22;674;45.552;-122.600;2023-02-15T04:22:13;4.40;1.00
1361;DHT22;674;45.552;-122.600;2023-02-15T04:25:00;4.40;1.00
1361;DHT22;674;45.552;-122.600;2023-02-15T04:27:49;4.70;1.00
1361;DHT22;674;45.552;-122.600;2023-02-15T04:30:22;4.50;1.00
1361;DHT22;674;45.552;-122.600;2023-02-15T04:32:50;4.50;1.00
1361;DHT22;674;45.552;-122.600;2023-02-15T04:35:19;4.40;1.00
1361;DHT22;674;45.552;-122.600;2023-02-15T04:37:48;4.50;1.00
1361;DHT22;674;45.552;-122.600;2023-02-15T04:40:17;4.40;1.00
1361;DHT22;674;45.552;-122.600;2023-02-15T04:42:48;4.20;1.00
1361;DHT22;674;45.552;-122.600;2023-02-15T04:45:17;4.10;1.00
1361;DHT22;674;45.552;-122.600;2023-02-15T04:47:45;4.20;1.00
1361;DHT22;674;45.552;-122.600;2023-02-15T04:50:14;4.20;1.00
1361;DHT22;674;45.552;-122.600;2023-02-15T04:52:42;4.10;1.00
1361;DHT22;674;45.552;-122.600;2023-02-15T04:55:11;3.80;1.00
1361;DHT22;674;45.552;-122.600;2023-02-15T04:57:39;3.90;1.00
1361;DHT22;674;45.552;-122.600;2023-02-15T05:00:08;3.50;1.90
1361;DHT22;674;45.552;-122.600;2023-02-15T05:02:37;3.70;7.50
1361;DHT22;674;45.552;-122.600;2023-02-15T05:05:05;3.70;1.70
1361;DHT22;674;45.552;-122.600;2023-02-15T05:07:35;3.40;1.00
1361;DHT22;674;45.552;-122.600;2023-02-15T05:10:03;3.30;1.00
1361;DHT22;674;45.552;-122.600;2023-02-15T05:12:32;3.50;1.00
1361;DHT22;674;45.552;-122.600;2023-02-15T05:15:00;3.20;1.00
1361;DHT22;674;45.552;-122.600;2023-02-15T05:17:28;3.00;1.00
1361;DHT22;674;45.552;-122.600;2023-02-15T05:19:57;2.80;2.40
1361;DHT22;674;45.552;-122.600;2023-02-15T05:22:25;2.60;5.40
1361;DHT22;674;45.552;-122.600;2023-02-15T05:24:54;2.50;14.20
1361;DHT22;674;45.552;-122.600;2023-02-15T05:27:54;2.70;16.30
1361;DHT22;674;45.552;-122.600;2023-02-15T05:30:41;2.30;18.70
1361;DHT22;674;45.552;-122.600;2023-02-15T05:33:10;2.50;23.30
1361;DHT22;674;45.552;-122.600;2023-02-15T05:35:39;2.40;23.30
1361;DHT22;674;45.552;-122.600;2023-02-15T05:38:08;2.60;22.80
1361;DHT22;674;45.552;-122.600;2023-02-15T05:40:36;2.00;28.70
1361;DHT22;674;45.552;-122.600;2023-02-15T05:43:05;2.20;37.10
1361;DHT22;674;45.552;-122.600;2023-02-15T05:45:33;2.00;43.60
1361;DHT22;674;45.552;-122.600;2023-02-15T05:48:01;1.90;56.20
1361;DHT22;674;45.552;-122.600;2023-02-15T05:50:30;1.90;55.10
1361;DHT22;674;45.552;-122.600;2023-02-15T05:52:58;1.70;64.20
1361;DHT22;674;45.552;-122.600;2023-02-15T05:55:27;1.50;74.40
1361;DHT22;674;45.552;-122.600;2023-02-15T05:57:55;1.70;76.50
1361;DHT22;674;45.552;-122.600;2023-02-15T06:00:24;1.70;79.80
1361;DHT22;674;45.552;-122.600;2023-02-15T06:02:53;1.70;81.60
1361;DHT22;674;45.552;-122.600;2023-02-15T06:05:21;1.70;82.80
1361;DHT22;674;45.552;-122.600;2023-02-15T06:07:50;1.30;84.40
1361;DHT22;674;45.552;-122.600;2023-02-15T06:10:18;1.50;88.40
1361;DHT22;674;45.552;-122.600;2023-02-15T06:12:47;1.50;90.20
1361;DHT22;674;45.552;-122.600;2023-02-15T06:15:15;1.30;92.20
1361;DHT22;674;45.552;-122.600;2023-02-15T06:17:44;0.80;98.50
1361;DHT22;674;45.552;-122.600;2023-02-15T06:20:13;0.80;99.90
1361;DHT22;674;45.552;-122.600;2023-02-15T06:22:41;0.90;99.90
1361;DHT22;674;45.552;-122.600;2023-02-15T06:25:10;0.80;99.90
1361;DHT22;674;45.552;-122.600;2023-02-15T06:27:42;0.90;99.90
1361;DHT22;674;45.552;-122.600;2023-02-15T06:30:11;0.90;99.90
1361;DHT22;674;45.552;-122.600;2023-02-15T06:32:40;0.80;99.90
1361;DHT22;674;45.552;-122.600;2023-02-15T06:35:08;0.70;99.90
1361;DHT22;674;45.552;-122.600;2023-02-15T06:37:37;0.80;99.90
1361;DHT22;674;45.552;-122.600;2023-02-15T06:40:07;0.70;99.90
1361;DHT22;674;45.552;-122.600;2023-02-15T06:42:36;0.90;99.90
1361;DHT22;674;45.552;-122.600;2023-02-15T06:45:05;1.00;99.90
1361;DHT22;674;45.552;-122.600;2023-02-15T06:47:34;0.90;99.90
1361;DHT22;674;45.552;-122.600;2023-02-15T06:50:07;1.00;99.90
1361;DHT22;674;45.552;-122.600;2023-02-15T06:52:35;0.40;99.90
1361;DHT22;674;45.552;-122.600;2023-02-15T06:55:04;0.20;99.90
1361;DHT22;674;45.552;-122.600;2023-02-15T06:57:33;0.50;99.90
1361;DHT22;674;45.552;-122.600;2023-02-15T07:00:02;0.20;99.90
1361;DHT22;674;45.552;-122.600;2023-02-15T07:02:32;0.20;99.90
1361;DHT22;674;45.552;-122.600;2023-02-15T07:05:01;0.70;99.90
1361;DHT22;674;45.552;-122.600;2023-02-15T07:07:29;0.70;99.90
1361;DHT22;674;45.552;-122.600;2023-02-15T07:09:58;0.70;99.90
1361;DHT22;674;45.552;-122.600;2023-02-15T07:12:26;0.40;99.90
1361;DHT22;674;45.552;-122.600;2023-02-15T07:15:12;0.40;99.90
1361;DHT22;674;45.552;-122.600;2023-02-15T07:17:41;0.20;99.90
1361;DHT22;674;45.552;-122.600;2023-02-15T07:20:13;0.50;99.90
1361;DHT22;674;45.552;-122.600;2023-02-15T07:22:42;0.40;99.90
1361;DHT22;674;45.552;-122.600;2023-02-15T07:25:11;0.10;99.90
1361;DHT22;674;45.552;-122.600;2023-02-15T07:27:40;0.20;99.90
1361;DHT22;674;45.552;-122.600;2023-02-15T07:30:12;0.20;99.90
1361;DHT22;674;45.552;-122.600;2023-02-15T07:32:41;0.00;99.90
1361;DHT22;674;45.552;-122.600;2023-02-15T07:35:32;0.10;99.90
1361;DHT22;674;45.552;-122.600;2023-02-15T07:38:01;0.10;99.90
1361;DHT22;674;45.552;-122.600;2023-02-15T07:40:29;-0.10;99.90
1361;DHT22;674;45.552;-122.600;2023-02-15T07:42:58;-0.10;99.90
1361;DHT22;674;45.552;-122.600;2023-02-15T07:45:26;0.00;99.90
1361;DHT22;674;45.552;-122.600;2023-02-15T07:47:55;-0.30;99.90
1361;DHT22;674;45.552;-122.600;2023-02-15T07:50:23;-0.10;99.90
1361;DHT22;674;45.552;-122.600;2023-02-15T07:52:52;-0.10;99.90
1361;DHT22;674;45.552;-122.600;2023-02-15T07:55:20;-0.10;99.90
1361;DHT22;674;45.552;-122.600;2023-02-15T07:57:50;-0.30;99.90
1361;DHT22;674;45.552;-122.600;2023-02-15T08:00:20;-0.20;99.90
1361;DHT22;674;45.552;-122.600;2023-02-15T08:02:54;0.00;99.90
1361;DHT22;674;45.552;-122.600;2023-02-15T08:05:43;-0.30;99.90
1361;DHT22;674;45.552;-122.600;2023-02-15T08:08:12;-0.30;99.90
1361;DHT22;674;45.552;-122.600;2023-02-15T08:13:47;-0.40;99.90
1361;DHT22;674;45.552;-122.600;2023-02-15T08:21:35;-0.30;99.90
1361;DHT22;674;45.552;-122.600;2023-02-15T08:24:05;-0.20;99.90
1361;DHT22;674;45.552;-122.600;2023-02-15T08:26:35;-0.60;99.90
1361;DHT22;674;45.552;-122.600;2023-02-15T08:29:05;-0.10;99.90
1361;DHT22;674;45.552;-122.600;2023-02-15T08:31:37;-0.40;99.90
1361;DHT22;674;45.552;-122.600;2023-02-15T08:34:06;-0.10;99.90
1361;DHT22;674;45.552;-122.600;2023-02-15T08:36:35;-0.10;99.90
1361;DHT22;674;45.552;-122.600;2023-02-15T08:39:05;-0.40;99.90
1361;DHT22;674;45.552;-122.600;2023-02-15T08:41:35;-0.30;99.90
1361;DHT22;674;45.552;-122.600;2023-02-15T08:44:06;-0.40;99.90
1361;DHT22;674;45.552;-122.600;2023-02-15T08:46:37;-0.80;99.90
1361;DHT22;674;45.552;-122.600;2023-02-15T08:49:06;-0.60;99.90
1361;DHT22;674;45.552;-122.600;2023-02-15T08:51:37;-0.70;99.90
1361;DHT22;674;45.552;-122.600;2023-02-15T08:54:08;-0.50;99.90
1361;DHT22;674;45.552;-122.600;2023-02-15T08:56:39;-0.50;99.90
1361;DHT22;674;45.552;-122.600;2023-02-15T08:59:21;-0.50;99.90
1361;DHT22;674;45.552;-122.600;2023-02-15T09:01:51;-0.50;99.90
1361;DHT22;674;45.552;-122.600;2023-02-15T09:04:20;-0.50;99.90
1361;DHT22;674;45.552;-122.600;2023-02-15T09:06:49;-0.50;99.90
1361;DHT22;674;45.552;-122.600;2023-02-15T09:09:19;-0.70;99.90
1361;DHT22;674;45.552;-122.600;2023-02-15T09:11:51;-0.60;99.90
1361;DHT22;674;45.552;-122.600;2023-02-15T09:14:25;-0.80;99.90
1361;DHT22;674;45.552;-122.600;2023-02-15T09:16:54;-0.70;99.90
1361;DHT22;674;45.552;-122.600;2023-02-15T09:19:24;-0.80;99.90
1361;DHT22;674;45.552;-122.600;2023-02-15T09:21:52;-0.70;99.90
1361;DHT22;674;45.552;-122.600;2023-02-15T09:24:21;-0.80;99.90
1361;DHT22;674;45.552;-122.600;2023-02-15T09:26:50;-0.80;99.90
1361;DHT22;674;45.552;-122.600;2023-02-15T09:29:19;-0.70;99.90
1361;DHT22;674;45.552;-122.600;2023-02-15T09:31:49;-1.00;99.90
1361;DHT22;674;45.552;-122.600;2023-02-15T09:34:20;-1.00;99.90
1361;DHT22;674;45.552;-122.600;2023-02-15T09:36:49;-1.00;99.90
1361;DHT22;674;45.552;-122.600;2023-02-15T09:39:20;-1.00;99.90
1361;DHT22;674;45.552;-122.600;2023-02-15T09:45:16;-0.80;99.90
1361;DHT22;674;45.552;-122.600;2023-02-15T09:48:11;-1.00;99.90
1361;DHT22;674;45.552;-122.600;2023-02-15T09:51:21;-1.00;99.90
1361;DHT22;674;45.552;-122.600;2023-02-15T09:54:06;-0.80;99.90
1361;DHT22;674;45.552;-122.600;2023-02-15T09:57:00;-1.00;99.90
1361;DHT22;674;45.552;-122.600;2023-02-15T10:05:59;-0.90;99.90
1361;DHT22;674;45.552;-122.600;2023-02-15T10:13:26;-0.90;99.90
1361;DHT22;674;45.552;-122.600;2023-02-15T10:16:25;-1.00;99.90
1361;DHT22;674;45.552;-122.600;2023-02-15T10:27:20;-0.90;99.90
1361;DHT22;674;45.552;-122.600;2023-02-15T10:33:04;-1.00;99.90
1361;DHT22;674;45.552;-122.600;2023-02-15T10:41:43;-1.00;99.90
1361;DHT22;674;45.552;-122.600;2023-02-15T10:50:25;-1.00;99.90
1361;DHT22;674;45.552;-122.600;2023-02-15T10:53:32;-0.90;99.90
1361;DHT22;674;45.552;-122.600;2023-02-15T11:01:49;-0.90;99.90
1361;DHT22;674;45.552;-122.600;2023-02-15T11:04:37;-1.00;99.90
1361;DHT22;674;45.552;-122.600;2023-02-15T11:07:53;-1.00;99.90
1361;DHT22;674;45.552;-122.600;2023-02-15T11:12:45;-0.80;99.90
1361;DHT22;674;45.552;-122.600;2023-02-15T11:16:10;-1.10;99.90
1361;DHT22;674;45.552;-122.600;2023-02-15T11:18:51;-0.90;99.90
1361;DHT22;674;45.552;-122.600;2023-02-15T11:21:59;-1.00;99.90
1361;DHT22;674;45.552;-122.600;2023-02-15T11:24:30;-1.00;99.90
1361;DHT22;674;45.552;-122.600;2023-02-15T11:27:18;-0.90;99.90
1361;DHT22;674;45.552;-122.600;2023-02-15T11:32:28;-1.20;99.90
1361;DHT22;674;45.552;-122.600;2023-02-15T11:35:01;-1.00;99.90
1361;DHT22;674;45.552;-122.600;2023-02-15T11:37:48;-1.00;99.90
1361;DHT22;674;45.552;-122.600;2023-02-15T11:40:25;-1.10;99.90
1361;DHT22;674;45.552;-122.600;2023-02-15T11:43:06;-1.30;99.90
1361;DHT22;674;45.552;-122.600;2023-02-15T11:45:35;-0.90;99.90
1361;DHT22;674;45.552;-122.600;2023-02-15T11:48:11;-1.20;99.90
1361;DHT22;674;45.552;-122.600;2023-02-15T11:50:40;-1.00;99.90
1361;DHT22;674;45.552;-122.600;2023-02-15T11:53:18;-1.00;99.90
1361;DHT22;674;45.552;-122.600;2023-02-15T11:55:49;-1.10;99.90
1361;DHT22;674;45.552;-122.600;2023-02-15T12:01:30;-1.20;99.90
1361;DHT22;674;45.552;-122.600;2023-02-15T12:06:35;-1.40;99.90
1361;DHT22;674;45.552;-122.600;2023-02-15T12:12:32;-1.20;99.90
1361;DHT22;674;45.552;-122.600;2023-02-15T12:15:11;-1.20;99.90
1361;DHT22;674;45.552;-122.600;2023-02-15T12:17:53;-1.20;99.90
1361;DHT22;674;45.552;-122.600;2023-02-15T12:20:29;-1.20;99.90
1361;DHT22;674;45.552;-122.600;2023-02-15T12:23:05;-1.20;99.90
1361;DHT22;674;45.552;-122.600;2023-02-15T12:25:53;-1.30;99.90
1361;DHT22;674;45.552;-122.600;2023-02-15T12:28:42;-1.20;99.90
1361;DHT22;674;45.552;-122.600;2023-02-15T12:31:23;-1.20;99.90
1361;DHT22;674;45.552;-122.600;2023-02-15T12:33:55;-1.20;99.90
1361;DHT22;674;45.552;-122.600;2023-02-15T12:36:33;-1.40;99.90
1361;DHT22;674;45.552;-122.600;2023-02-15T12:42:01;-1.40;99.90
1361;DHT22;674;45.552;-122.600;2023-02-15T12:44:33;-1.40;99.90
1361;DHT22;674;45.552;-122.600;2023-02-15T12:47:04;-1.20;99.90
1361;DHT22;674;45.552;-122.600;2023-02-15T12:49:37;-1.20;99.90
1361;DHT22;674;45.552;-122.600;2023-02-15T12:54:48;-1.20;99.90
1361;DHT22;674;45.552;-122.600;2023-02-15T12:57:30;-1.00;99.90
1361;DHT22;674;45.552;-122.600;2023-02-15T13:02:52;-1.00;99.90
1361;DHT22;674;45.552;-122.600;2023-02-15T13:05:41;-0.80;99.90
1361;DHT22;674;45.552;-122.600;2023-02-15T13:08:12;-0.80;99.90
1361;DHT22;674;45.552;-122.600;2023-02-15T13:11:04;-0.70;99.90
1361;DHT22;674;45.552;-122.600;2023-02-15T13:13:50;-0.30;99.90
1361;DHT22;674;45.552;-122.600;2023-02-15T13:16:36;-0.40;99.90
1361;DHT22;674;45.552;-122.600;2023-02-15T13:21:44;-0.60;99.90
1361;DHT22;674;45.552;-122.600;2023-02-15T13:27:34;-0.30;99.90
1361;DHT22;674;45.552;-122.600;2023-02-15T13:30:31;-0.30;99.90
1361;DHT22;674;45.552;-122.600;2023-02-15T13:33:03;-0.10;99.90
1361;DHT22;674;45.552;-122.600;2023-02-15T13:36:08;0.00;99.90
1361;DHT22;674;45.552;-122.600;2023-02-15T13:38:57;-0.10;99.90
1361;DHT22;674;45.552;-122.600;2023-02-15T13:50:48;0.40;99.90
1361;DHT22;674;45.552;-122.600;2023-02-15T13:56:04;0.50;99.90
1361;DHT22;674;45.552;-122.600;2023-02-15T14:01:39;0.40;99.90
1361;DHT22;674;45.552;-122.600;2023-02-15T14:04:21;0.40;99.90
1361;DHT22;674;45.552;-122.600;2023-02-15T14:15:11;0.90;99.90
1361;DHT22;674;45.552;-122.600;2023-02-15T14:26:56;0.70;99.90
1361;DHT22;674;45.552;-122.600;2023-02-15T14:32:13;0.40;99.90
1361;DHT22;674;45.552;-122.600;2023-02-15T14:35:00;0.60;99.90
1361;DHT22;674;45.552;-122.600;2023-02-15T14:40:26;0.90;99.90
1361;DHT22;674;45.552;-122.600;2023-02-15T14:43:28;0.80;99.90
1361;DHT22;674;45.552;-122.600;2023-02-15T14:48:55;1.00;99.90
1361;DHT22;674;45.552;-122.600;2023-02-15T14:59:55;1.10;99.90
1361;DHT22;674;45.552;-122.600;2023-02-15T15:05:09;0.40;99.90
1361;DHT22;674;45.552;-122.600;2023-02-15T15:07:58;0.40;99.90
1361;DHT22;674;45.552;-122.600;2023-02-15T15:10:37;0.70;99.90
1361;DHT22;674;45.552;-122.600;2023-02-15T15:13:51;0.10;99.90
1361;DHT22;674;45.552;-122.600;2023-02-15T15:18:59;0.40;99.90
1361;DHT22;674;45.552;-122.600;2023-02-15T15:41:43;0.00;99.90
1361;DHT22;674;45.552;-122.600;2023-02-15T15:47:49;0.40;99.90
1361;DHT22;674;45.552;-122.600;2023-02-15T15:50:33;0.10;99.90
1361;DHT22;674;45.552;-122.600;2023-02-15T15:53:02;0.40;99.90
1361;DHT22;674;45.552;-122.600;2023-02-15T15:55:33;0.40;99.90
1361;DHT22;674;45.552;-122.600;2023-02-15T15:58:05;0.40;99.90
1361;DHT22;674;45.552;-122.600;2023-02-15T16:00:47;1.00;99.90
1361;DHT22;674;45.552;-122.600;2023-02-15T16:03:27;1.00;99.90
1361;DHT22;674;45.552;-122.600;2023-02-15T16:05:56;0.80;99.90
1361;DHT22;674;45.552;-122.600;2023-02-15T16:08:34;0.70;99.90
1361;DHT22;674;45.552;-122.600;2023-02-15T16:11:21;0.90;99.90
1361;DHT22;674;45.552;-122.600;2023-02-15T16:13:51;0.90;99.90
1361;DHT22;674;45.552;-122.600;2023-02-15T16:16:25;0.80;99.90
1361;DHT22;674;45.552;-122.600;2023-02-15T16:18:57;0.60;99.90
1361;DHT22;674;45.552;-122.600;2023-02-15T16:21:33;1.00;99.90
1361;DHT22;674;45.552;-122.600;2023-02-15T16:24:37;0.60;99.90
1361;DHT22;674;45.552;-122.600;2023-02-15T16:27:34;0.70;99.90
1361;DHT22;674;45.552;-122.600;2023-02-15T16:33:05;1.00;99.90
1361;DHT22;674;45.552;-122.600;2023-02-15T16:35:36;1.10;99.90
1361;DHT22;674;45.552;-122.600;2023-02-15T16:38:08;1.10;99.90
1361;DHT22;674;45.552;-122.600;2023-02-15T16:40:54;1.50;99.90
1361;DHT22;674;45.552;-122.600;2023-02-15T16:43:26;1.50;99.90
1361;DHT22;674;45.552;-122.600;2023-02-15T16:46:05;1.20;99.90
1361;DHT22;674;45.552;-122.600;2023-02-15T16:48:35;1.10;99.90
1361;DHT22;674;45.552;-122.600;2023-02-15T16:51:07;1.60;99.90
1361;DHT22;674;45.552;-122.600;2023-02-15T16:53:37;1.30;99.90
1361;DHT22;674;45.552;-122.600;2023-02-15T16:56:05;1.50;99.90
1361;DHT22;674;45.552;-122.600;2023-02-15T16:58:41;1.70;99.90
1361;DHT22;674;45.552;-122.600;2023-02-15T17:01:12;1.60;99.90
1361;DHT22;674;45.552;-122.600;2023-02-15T17:03:42;1.60;99.90
1361;DHT22;674;45.552;-122.600;2023-02-15T17:06:25;1.70;99.90
1361;DHT22;674;45.552;-122.600;2023-02-15T17:09:04;1.50;99.90
1361;DHT22;674;45.552;-122.600;2023-02-15T17:11:41;1.70;99.90
1361;DHT22;674;45.552;-122.600;2023-02-15T17:14:12;1.60;99.90
1361;DHT22;674;45.552;-122.600;2023-02-15T17:19:24;1.70;99.90
1361;DHT22;674;45.552;-122.600;2023-02-15T17:21:59;1.90;99.90
1361;DHT22;674;45.552;-122.600;2023-02-15T17:24:39;1.70;99.90
1361;DHT22;674;45.552;-122.600;2023-02-15T17:27:19;2.00;99.90
1361;DHT22;674;45.552;-122.600;2023-02-15T17:29:51;2.10;99.90
1361;DHT22;674;45.552;-122.600;2023-02-15T17:32:30;2.30;98.70
1361;DHT22;674;45.552;-122.600;2023-02-15T17:37:48;2.30;91.40
1361;DHT22;674;45.552;-122.600;2023-02-15T17:42:50;2.20;99.10
1361;DHT22;674;45.552;-122.600;2023-02-15T17:45:19;2.50;96.20
1361;DHT22;674;45.552;-122.600;2023-02-15T17:47:49;2.20;91.20
1361;DHT22;674;45.552;-122.600;2023-02-15T17:50:22;2.20;92.50
1361;DHT22;674;45.552;-122.600;2023-02-15T17:52:52;2.00;85.30
1361;DHT22;674;45.552;-122.600;2023-02-15T17:55:22;2.00;93.40
1361;DHT22;674;45.552;-122.600;2023-02-15T17:58:11;2.40;93.70
1361;DHT22;674;45.552;-122.600;2023-02-15T18:00:44;2.40;87.00
1361;DHT22;674;45.552;-122.600;2023-02-15T18:03:50;2.40;89.00
1361;DHT22;674;45.552;-122.600;2023-02-15T18:06:39;2.60;77.00
1361;DHT22;674;45.552;-122.600;2023-02-15T18:09:26;3.00;76.20
1361;DHT22;674;45.552;-122.600;2023-02-15T18:14:51;3.50;55.80
1361;DHT22;674;45.552;-122.600;2023-02-15T18:17:43;3.40;28.40
1361;DHT22;674;45.552;-122.600;2023-02-15T18:20:21;3.90;15.90
1361;DHT22;674;45.552;-122.600;2023-02-15T18:22:51;3.80;1.00
1361;DHT22;674;45.552;-122.600;2023-02-15T18:25:22;3.60;1.00
1361;DHT22;674;45.552;-122.600;2023-02-15T18:27:52;3.60;1.00
1361;DHT22;674;45.552;-122.600;2023-02-15T18:30:23;3.90;1.00
1361;DHT22;674;45.552;-122.600;2023-02-15T18:32:55;4.00;1.00
1361;DHT22;674;45.552;-122.600;2023-02-15T18:35:28;4.10;1.00
1361;DHT22;674;45.552;-122.600;2023-02-15T18:37:58;4.10;1.00
1361;DHT22;674;45.552;-122.600;2023-02-15T18:40:28;4.20;1.00
1361;DHT22;674;45.552;-122.600;2023-02-15T18:42:58;3.50;1.00
1361;DHT22;674;45.552;-122.600;2023-02-15T18:45:28;2.70;1.00
1361;DHT22;674;45.552;-122.600;2023-02-15T18:48:00;3.30;1.00
1361;DHT22;674;45.552;-122.600;2023-02-15T18:50:33;3.80;1.00
1361;DHT22;674;45.552;-122.600;2023-02-15T18:53:03;4.10;1.00
1361;DHT22;674;45.552;-122.600;2023-02-15T18:55:32;4.50;1.00
1361;DHT22;674;45.552;-122.600;2023-02-15T18:58:02;3.30;1.00
1361;DHT22;674;45.552;-122.600;2023-02-15T19:00:33;2.90;1.00
1361;DHT22;674;45.552;-122.600;2023-02-15T19:03:02;3.50;1.00
1361;DHT22;674;45.552;-122.600;2023-02-15T19:05:31;4.30;1.00
1361;DHT22;674;45.552;-122.600;2023-02-15T19:08:01;4.40;1.00
1361;DHT22;674;45.552;-122.600;2023-02-15T19:10:31;5.30;1.00
1361;DHT22;674;45.552;-122.600;2023-02-15T19:13:00;6.00;1.00
1361;DHT22;674;45.552;-122.600;2023-02-15T19:15:29;6.70;1.00
1361;DHT22;674;45.552;-122.600;2023-02-15T19:17:57;6.60;1.00
1361;DHT22;674;45.552;-122.600;2023-02-15T19:20:31;7.00;1.00
1361;DHT22;674;45.552;-122.600;2023-02-15T19:23:00;7.30;1.00
1361;DHT22;674;45.552;-122.600;2023-02-15T19:25:31;7.40;1.00
1361;DHT22;674;45.552;-122.600;2023-02-15T19:28:14;7.50;1.00
1361;DHT22;674;45.552;-122.600;2023-02-15T19:30:43;8.20;1.00
1361;DHT22;674;45.552;-122.600;2023-02-15T19:33:17;8.30;1.00
1361;DHT22;674;45.552;-122.600;2023-02-15T19:35:48;8.60;1.00
1361;DHT22;674;45.552;-122.600;2023-02-15T19:38:26;8.70;1.00
1361;DHT22;674;45.552;-122.600;2023-02-15T19:41:00;8.90;1.00
1361;DHT22;674;45.552;-122.600;2023-02-15T19:43:31;8.80;1.00
1361;DHT22;674;45.552;-122.600;2023-02-15T19:46:01;8.80;1.00
1361;DHT22;674;45.552;-122.600;2023-02-15T19:48:29;9.10;1.00
1361;DHT22;674;45.552;-122.600;2023-02-15T19:50:58;9.80;1.00
1361;DHT22;674;45.552;-122.600;2023-02-15T19:53:27;10.40;1.00
1361;DHT22;674;45.552;-122.600;2023-02-15T19:55:56;9.90;1.00